sensor_id;sensor_type;location;lat;lon;timestamp;temperature;humidity
21590;DHT22;10957;50.968;6.828;2023-02-26T00:01:14;-0.50;1.00
21590;DHT22;10957;50.968;6.828;2023-02-26T00:06:16;-0.60;1.00
21590;DHT22;10957;50.968;6.828;2023-02-26T00:11:17;-0.50;1.00
21590;DHT22;10957;50.968;6.828;2023-02-26T00:16:26;-0.60;1.00
21590;DHT22;10957;50.968;6.828;2023-02-26T00:21:29;-0.40;8.00
21590;DHT22;10957;50.968;6.828;2023-02-26T00:26:31;-0.10;12.20
21590;DHT22;10957;50.968;6.828;2023-02-26T00:31:34;-0.20;4.80
21590;DHT22;10957;50.968;6.828;2023-02-26T00:36:44;-0.10;10.10
21590;DHT22;10957;50.968;6.828;2023-02-26T00:41:49;-0.20;7.50
21590;DHT22;10957;50.968;6.828;2023-02-26T00:57:57;0.30;9.60
21590;DHT22;10957;50.968;6.828;2023-02-26T01:02:58;0.30;17.50
21590;DHT22;10957;50.968;6.828;2023-02-26T01:08:13;0.00;22.10
21590;DHT22;10957;50.968;6.828;2023-02-26T01:13:16;0.20;25.20
21590;DHT22;10957;50.968;6.828;2023-02-26T01:18:27;0.10;19.30
21590;DHT22;10957;50.968;6.828;2023-02-26T01:23:36;-0.10;30.30
21590;DHT22;10957;50.968;6.828;2023-02-26T01:28:38;0.20;21.00
21590;DHT22;10957;50.968;6.828;2023-02-26T01:33:44;-0.10;11.90
21590;DHT22;10957;50.968;6.828;2023-02-26T01:39:51;-0.30;9.30
21590;DHT22;10957;50.968;6.828;2023-02-26T01:49:35;-0.20;1.00
21590;DHT22;10957;50.968;6.828;2023-02-26T01:54:37;-0.20;1.00
21590;DHT22;10957;50.968;6.828;2023-02-26T01:59:43;-0.20;1.00
21590;DHT22;10957;50.968;6.828;2023-02-26T02:04:45;-0.20;1.00
21590;DHT22;10957;50.968;6.828;2023-02-26T02:09:47;-0.50;1.00
21590;DHT22;10957;50.968;6.828;2023-02-26T02:31:07;0.20;1.00
21590;DHT22;10957;50.968;6.828;2023-02-26T02:36:58;-0.10;1.00
21590;DHT22;10957;50.968;6.828;2023-02-26T02:41:46;-0.20;1.00
21590;DHT22;10957;50.968;6.828;2023-02-26T02:46:53;-0.30;1.00
21590;DHT22;10957;50.968;6.828;2023-02-26T02:52:15;0.00;1.00
21590;DHT22;10957;50.968;6.828;2023-02-26T02:57:26;-0.50;1.00
21590;DHT22;10957;50.968;6.828;2023-02-26T03:02:51;-0.50;1.00
21590;DHT22;10957;50.968;6.828;2023-02-26T03:08:03;-0.70;6.10
21590;DHT22;10957;50.968;6.828;2023-02-26T03:13:05;-0.50;15.10
21590;DHT22;10957;50.968;6.828;2023-02-26T03:23:34;-0.50;14.10
21590;DHT22;10957;50.968;6.828;2023-02-26T03:28:47;-0.40;1.00
21590;DHT22;10957;50.968;6.828;2023-02-26T03:34:14;-0.40;2.60
21590;DHT22;10957;50.968;6.828;2023-02-26T03:39:27;-0.50;1.00
21590;DHT22;10957;50.968;6.828;2023-02-26T03:44:32;-0.60;1.00
21590;DHT22;10957;50.968;6.828;2023-02-26T03:49:39;-0.20;1.00
21590;DHT22;10957;50.968;6.828;2023-02-26T03:54:45;-0.60;1.00
21590;DHT22;10957;50.968;6.828;2023-02-26T04:00:13;-0.40;1.00
21590;DHT22;10957;50.968;6.828;2023-02-26T04:05:23;-0.70;1.00
21590;DHT22;10957;50.968;6.828;2023-02-26T04:10:57;-0.40;1.00
21590;DHT22;10957;50.968;6.828;2023-02-26T04:15:59;-0.60;1.00
21590;DHT22;10957;50.968;6.828;2023-02-26T04:21:00;-0.60;1.00
21590;DHT22;10957;50.968;6.828;2023-02-26T04:26:01;-1.20;1.00
21590;DHT22;10957;50.968;6.828;2023-02-26T04:31:04;-0.70;1.00
21590;DHT22;10957;50.968;6.828;2023-02-26T04:36:06;-0.80;1.00
21590;DHT22;10957;50.968;6.828;2023-02-26T04:41:08;-0.80;1.00
21590;DHT22;10957;50.968;6.828;2023-02-26T04:46:10;-1.40;1.00
21590;DHT22;10957;50.968;6.828;2023-02-26T04:51:11;-1.40;1.00
21590;DHT22;10957;50.968;6.828;2023-02-26T04:56:13;-0.70;1.00
21590;DHT22;10957;50.968;6.828;2023-02-26T05:01:14;-1.00;1.00
21590;DHT22;10957;50.968;6.828;2023-02-26T05:06:16;-1.00;1.00
21590;DHT22;10957;50.968;6.828;2023-02-26T05:11:17;-1.00;1.00
21590;DHT22;10957;50.968;6.828;2023-02-26T05:16:18;-0.70;1.00
21590;DHT22;10957;50.968;6.828;2023-02-26T05:21:19;-0.80;1.00
21590;DHT22;10957;50.968;6.828;2023-02-26T05:26:22;-1.00;1.00
21590;DHT22;10957;50.968;6.828;2023-02-26T05:31:23;-1.30;1.00
21590;DHT22;10957;50.968;6.828;2023-02-26T05:36:25;-0.90;1.00
21590;DHT22;10957;50.968;6.828;2023-02-26T05:41:26;-0.90;1.00
21590;DHT22;10957;50.968;6.828;2023-02-26T05:46:27;-1.40;1.00
21590;DHT22;10957;50.968;6.828;2023-02-26T05:51:28;-0.80;1.00
21590;DHT22;10957;50.968;6.828;2023-02-26T05:56:30;-0.90;1.00
21590;DHT22;10957;50.968;6.828;2023-02-26T06:01:31;-0.90;1.00
21590;DHT22;10957;50.968;6.828;2023-02-26T06:06:33;-0.80;1.00
21590;DHT22;10957;50.968;6.828;2023-02-26T06:11:34;-0.90;1.00
21590;DHT22;10957;50.968;6.828;2023-02-26T06:16:36;-1.00;1.00
21590;DHT22;10957;50.968;6.828;2023-02-26T06:21:38;-0.90;1.00
21590;DHT22;10957;50.968;6.828;2023-02-26T06:26:40;-1.00;1.00
21590;DHT22;10957;50.968;6.828;2023-02-26T06:31:41;-1.00;1.00
21590;DHT22;10957;50.968;6.828;2023-02-26T06:36:42;-1.20;1.00
21590;DHT22;10957;50.968;6.828;2023-02-26T06:41:44;-1.70;1.00
21590;DHT22;10957;50.968;6.828;2023-02-26T06:46:45;-1.10;1.00
21590;DHT22;10957;50.968;6.828;2023-02-26T06:51:46;-1.80;1.00
21590;DHT22;10957;50.968;6.828;2023-02-26T06:56:47;-1.10;1.00
21590;DHT22;10957;50.968;6.828;2023-02-26T07:01:49;-0.90;1.00
21590;DHT22;10957;50.968;6.828;2023-02-26T07:06:50;-1.00;1.00
21590;DHT22;10957;50.968;6.828;2023-02-26T07:11:52;-1.40;1.00
21590;DHT22;10957;50.968;6.828;2023-02-26T07:16:53;-0.90;1.00
21590;DHT22;10957;50.968;6.828;2023-02-26T07:21:54;-0.90;1.00
21590;DHT22;10957;50.968;6.828;2023-02-26T07:26:55;-0.70;1.00
21590;DHT22;10957;50.968;6.828;2023-02-26T07:31:56;-0.70;1.00
21590;DHT22;10957;50.968;6.828;2023-02-26T07:36:58;-0.60;1.00
21590;DHT22;10957;50.968;6.828;2023-02-26T07:41:59;-0.60;1.00
21590;DHT22;10957;50.968;6.828;2023-02-26T07:47:03;-0.60;1.00
21590;DHT22;10957;50.968;6.828;2023-02-26T07:52:05;-0.30;1.00
21590;DHT22;10957;50.968;6.828;2023-02-26T07:57:08;-0.20;1.00
21590;DHT22;10957;50.968;6.828;2023-02-26T08:02:10;0.00;1.00
21590;DHT22;10957;50.968;6.828;2023-02-26T08:07:11;0.40;1.00
21590;DHT22;10957;50.968;6.828;2023-02-26T08:12:12;-0.40;1.00
21590;DHT22;10957;50.968;6.828;2023-02-26T08:17:14;0.10;1.00
21590;DHT22;10957;50.968;6.828;2023-02-26T08:22:15;0.60;1.00
21590;DHT22;10957;50.968;6.828;2023-02-26T08:27:16;0.70;1.00
21590;DHT22;10957;50.968;6.828;2023-02-26T08:32:18;1.00;1.00
21590;DHT22;10957;50.968;6.828;2023-02-26T08:37:20;1.20;1.00
21590;DHT22;10957;50.968;6.828;2023-02-26T08:42:26;1.40;1.00
21590;DHT22;10957;50.968;6.828;2023-02-26T08:47:27;1.50;1.00
21590;DHT22;10957;50.968;6.828;2023-02-26T08:52:30;1.50;1.00
21590;DHT22;10957;50.968;6.828;2023-02-26T08:57:31;1.90;1.00
21590;DHT22;10957;50.968;6.828;2023-02-26T09:02:33;1.90;1.00
21590;DHT22;10957;50.968;6.828;2023-02-26T09:07:34;2.10;1.00
21590;DHT22;10957;50.968;6.828;2023-02-26T09:12:36;2.20;1.00
21590;DHT22;10957;50.968;6.828;2023-02-26T09:17:40;2.10;1.00
21590;DHT22;10957;50.968;6.828;2023-02-26T09:22:42;2.40;1.00
21590;DHT22;10957;50.968;6.828;2023-02-26T09:27:43;2.80;1.00
21590;DHT22;10957;50.968;6.828;2023-02-26T09:32:44;2.40;1.00
21590;DHT22;10957;50.968;6.828;2023-02-26T09:37:45;2.70;1.00
21590;DHT22;10957;50.968;6.828;2023-02-26T09:42:52;2.90;1.00
21590;DHT22;10957;50.968;6.828;2023-02-26T09:47:56;2.70;1.00
21590;DHT22;10957;50.968;6.828;2023-02-26T09:53:01;2.60;1.00
21590;DHT22;10957;50.968;6.828;2023-02-26T09:58:05;1.70;1.00
21590;DHT22;10957;50.968;6.828;2023-02-26T10:03:20;2.20;1.00
21590;DHT22;10957;50.968;6.828;2023-02-26T10:08:29;2.00;1.00
21590;DHT22;10957;50.968;6.828;2023-02-26T10:13:43;2.10;1.00
21590;DHT22;10957;50.968;6.828;2023-02-26T10:19:00;2.40;1.00
21590;DHT22;10957;50.968;6.828;2023-02-26T10:24:10;2.80;1.00
21590;DHT22;10957;50.968;6.828;2023-02-26T10:29:31;3.10;1.00
21590;DHT22;10957;50.968;6.828;2023-02-26T10:34:38;3.40;1.00
21590;DHT22;10957;50.968;6.828;2023-02-26T10:50:33;3.60;1.00
21590;DHT22;10957;50.968;6.828;2023-02-26T10:55:42;3.20;1.00
21590;DHT22;10957;50.968;6.828;2023-02-26T11:00:47;3.60;1.00
21590;DHT22;10957;50.968;6.828;2023-02-26T11:05:49;3.10;1.00
21590;DHT22;10957;50.968;6.828;2023-02-26T11:11:01;3.90;1.00
21590;DHT22;10957;50.968;6.828;2023-02-26T11:16:07;3.90;1.00
21590;DHT22;10957;50.968;6.828;2023-02-26T11:21:23;3.90;1.00
21590;DHT22;10957;50.968;6.828;2023-02-26T11:26:31;4.20;1.00
21590;DHT22;10957;50.968;6.828;2023-02-26T11:31:32;4.20;1.00
21590;DHT22;10957;50.968;6.828;2023-02-26T11:36:38;3.90;1.00
21590;DHT22;10957;50.968;6.828;2023-02-26T11:41:40;3.90;1.00
21590;DHT22;10957;50.968;6.828;2023-02-26T11:46:45;3.90;1.00
21590;DHT22;10957;50.968;6.828;2023-02-26T11:51:48;4.50;1.00
21590;DHT22;10957;50.968;6.828;2023-02-26T11:57:04;4.90;1.00
21590;DHT22;10957;50.968;6.828;2023-02-26T12:02:11;4.60;1.00
21590;DHT22;10957;50.968;6.828;2023-02-26T12:07:15;4.70;1.00
21590;DHT22;10957;50.968;6.828;2023-02-26T12:17:52;3.90;1.00
21590;DHT22;10957;50.968;6.828;2023-02-26T12:39:55;4.10;99.90
21590;DHT22;10957;50.968;6.828;2023-02-26T13:11:56;5.20;99.90
21590;DHT22;10957;50.968;6.828;2023-02-26T13:18:21;5.10;99.90
21590;DHT22;10957;50.968;6.828;2023-02-26T13:28:00;5.30;99.90
21590;DHT22;10957;50.968;6.828;2023-02-26T13:33:03;5.20;99.90
21590;DHT22;10957;50.968;6.828;2023-02-26T13:38:27;5.30;99.90
21590;DHT22;10957;50.968;6.828;2023-02-26T13:43:54;5.40;99.90
21590;DHT22;10957;50.968;6.828;2023-02-26T14:04:32;4.70;99.90
21590;DHT22;10957;50.968;6.828;2023-02-26T14:10:03;4.50;99.90
21590;DHT22;10957;50.968;6.828;2023-02-26T14:25:33;5.00;99.90
21590;DHT22;10957;50.968;6.828;2023-02-26T14:30:46;5.00;99.90
21590;DHT22;10957;50.968;6.828;2023-02-26T14:35:50;4.70;99.90
21590;DHT22;10957;50.968;6.828;2023-02-26T14:41:04;4.90;99.90
21590;DHT22;10957;50.968;6.828;2023-02-26T14:46:07;5.00;99.90
21590;DHT22;10957;50.968;6.828;2023-02-26T14:51:34;4.60;99.90
21590;DHT22;10957;50.968;6.828;2023-02-26T14:56:51;4.80;99.90
21590;DHT22;10957;50.968;6.828;2023-02-26T15:23:29;4.50;99.90
21590;DHT22;10957;50.968;6.828;2023-02-26T15:28:35;4.50;99.90
21590;DHT22;10957;50.968;6.828;2023-02-26T15:33:37;4.50;99.90
21590;DHT22;10957;50.968;6.828;2023-02-26T15:38:46;4.50;99.90
21590;DHT22;10957;50.968;6.828;2023-02-26T15:43:51;4.00;99.90
21590;DHT22;10957;50.968;6.828;2023-02-26T15:48:57;4.40;99.90
21590;DHT22;10957;50.968;6.828;2023-02-26T15:54:00;4.40;99.90
21590;DHT22;10957;50.968;6.828;2023-02-26T15:59:18;4.00;99.90
21590;DHT22;10957;50.968;6.828;2023-02-26T16:04:21;4.50;99.90
21590;DHT22;10957;50.968;6.828;2023-02-26T16:09:33;4.10;99.90
21590;DHT22;10957;50.968;6.828;2023-02-26T16:14:38;4.00;99.90
21590;DHT22;10957;50.968;6.828;2023-02-26T16:19:44;3.70;99.90
21590;DHT22;10957;50.968;6.828;2023-02-26T16:24:51;3.70;99.90
21590;DHT22;10957;50.968;6.828;2023-02-26T16:29:56;3.50;99.90
21590;DHT22;10957;50.968;6.828;2023-02-26T16:35:01;3.60;99.90
21590;DHT22;10957;50.968;6.828;2023-02-26T16:40:18;3.50;99.90
21590;DHT22;10957;50.968;6.828;2023-02-26T16:45:25;3.20;99.90
21590;DHT22;10957;50.968;6.828;2023-02-26T16:50:34;3.40;99.90
21590;DHT22;10957;50.968;6.828;2023-02-26T16:55:38;3.10;99.90
21590;DHT22;10957;50.968;6.828;2023-02-26T17:00:43;3.10;99.90
21590;DHT22;10957;50.968;6.828;2023-02-26T17:06:07;2.80;99.90
21590;DHT22;10957;50.968;6.828;2023-02-26T17:11:22;3.00;99.90
21590;DHT22;10957;50.968;6.828;2023-02-26T17:16:24;2.80;99.90
21590;DHT22;10957;50.968;6.828;2023-02-26T17:21:25;2.80;99.90
21590;DHT22;10957;50.968;6.828;2023-02-26T17:26:26;2.70;99.90
21590;DHT22;10957;50.968;6.828;2023-02-26T17:31:27;1.90;99.90
21590;DHT22;10957;50.968;6.828;2023-02-26T17:36:29;1.80;99.90
21590;DHT22;10957;50.968;6.828;2023-02-26T17:41:30;2.20;99.90
21590;DHT22;10957;50.968;6.828;2023-02-26T17:46:32;2.20;99.90
21590;DHT22;10957;50.968;6.828;2023-02-26T17:51:33;1.50;99.90
21590;DHT22;10957;50.968;6.828;2023-02-26T17:56:36;2.10;99.90
21590;DHT22;10957;50.968;6.828;2023-02-26T18:01:38;1.80;99.90
21590;DHT22;10957;50.968;6.828;2023-02-26T18:06:39;1.70;99.90
21590;DHT22;10957;50.968;6.828;2023-02-26T18:11:41;1.90;99.90
21590;DHT22;10957;50.968;6.828;2023-02-26T18:16:43;1.60;99.90
21590;DHT22;10957;50.968;6.828;2023-02-26T18:21:46;1.40;99.90
21590;DHT22;10957;50.968;6.828;2023-02-26T18:26:47;1.30;99.90
21590;DHT22;10957;50.968;6.828;2023-02-26T18:31:48;1.50;99.90
21590;DHT22;10957;50.968;6.828;2023-02-26T18:36:50;1.50;99.90
21590;DHT22;10957;50.968;6.828;2023-02-26T18:41:51;1.10;99.90
21590;DHT22;10957;50.968;6.828;2023-02-26T18:46:52;1.10;99.90
21590;DHT22;10957;50.968;6.828;2023-02-26T18:51:54;0.90;99.90
21590;DHT22;10957;50.968;6.828;2023-02-26T18:56:55;0.90;99.90
21590;DHT22;10957;50.968;6.828;2023-02-26T19:01:57;0.70;99.90
21590;DHT22;10957;50.968;6.828;2023-02-26T19:06:58;0.40;99.90
21590;DHT22;10957;50.968;6.828;2023-02-26T19:12:01;0.50;99.90
21590;DHT22;10957;50.968;6.828;2023-02-26T19:17:03;0.30;99.90
21590;DHT22;10957;50.968;6.828;2023-02-26T19:22:05;-0.20;99.90
21590;DHT22;10957;50.968;6.828;2023-02-26T19:27:08;0.10;99.90
21590;DHT22;10957;50.968;6.828;2023-02-26T19:32:09;-0.10;99.90
21590;DHT22;10957;50.968;6.828;2023-02-26T19:37:11;-0.30;1.00
21590;DHT22;10957;50.968;6.828;2023-02-26T19:42:12;-0.50;1.00
21590;DHT22;10957;50.968;6.828;2023-02-26T19:47:14;-0.30;1.00
21590;DHT22;10957;50.968;6.828;2023-02-26T19:52:15;-0.70;1.00
21590;DHT22;10957;50.968;6.828;2023-02-26T19:57:16;-0.50;1.00
21590;DHT22;10957;50.968;6.828;2023-02-26T20:02:17;-0.60;1.00
21590;DHT22;10957;50.968;6.828;2023-02-26T20:07:20;-1.10;1.00
21590;DHT22;10957;50.968;6.828;2023-02-26T20:12:21;-0.50;1.00
21590;DHT22;10957;50.968;6.828;2023-02-26T20:17:22;-0.80;1.00
21590;DHT22;10957;50.968;6.828;2023-02-26T20:22:23;-0.70;1.00
21590;DHT22;10957;50.968;6.828;2023-02-26T20:27:25;-0.60;1.00
21590;DHT22;10957;50.968;6.828;2023-02-26T20:32:26;-1.20;1.00
21590;DHT22;10957;50.968;6.828;2023-02-26T20:37:27;-0.40;1.00
21590;DHT22;10957;50.968;6.828;2023-02-26T20:42:28;-0.20;1.00
21590;DHT22;10957;50.968;6.828;2023-02-26T20:47:29;-0.30;1.00
21590;DHT22;10957;50.968;6.828;2023-02-26T20:52:31;0.10;1.00
21590;DHT22;10957;50.968;6.828;2023-02-26T20:57:32;0.10;1.00
21590;DHT22;10957;50.968;6.828;2023-02-26T21:02:36;0.00;1.00
21590;DHT22;10957;50.968;6.828;2023-02-26T21:07:38;-0.10;1.00
21590;DHT22;10957;50.968;6.828;2023-02-26T21:12:39;0.00;1.00
21590;DHT22;10957;50.968;6.828;2023-02-26T21:17:41;0.00;1.00
21590;DHT22;10957;50.968;6.828;2023-02-26T21:22:44;-0.30;1.00
21590;DHT22;10957;50.968;6.828;2023-02-26T21:27:46;-0.20;1.00
21590;DHT22;10957;50.968;6.828;2023-02-26T21:32:50;-0.60;1.00
21590;DHT22;10957;50.968;6.828;2023-02-26T21:37:52;-0.50;1.00
21590;DHT22;10957;50.968;6.828;2023-02-26T21:42:55;-1.30;1.00
21590;DHT22;10957;50.968;6.828;2023-02-26T21:47:58;-0.70;1.00
21590;DHT22;10957;50.968;6.828;2023-02-26T21:53:02;-0.60;1.00
21590;DHT22;10957;50.968;6.828;2023-02-26T21:58:05;-0.70;1.00
21590;DHT22;10957;50.968;6.828;2023-02-26T22:03:08;-0.50;1.00
21590;DHT22;10957;50.968;6.828;2023-02-26T22:08:11;-0.70;1.00
21590;DHT22;10957;50.968;6.828;2023-02-26T22:13:14;-0.50;1.00
21590;DHT22;10957;50.968;6.828;2023-02-26T22:18:17;-0.20;1.00
21590;DHT22;10957;50.968;6.828;2023-02-26T22:23:21;-0.30;1.00
21590;DHT22;10957;50.968;6.828;2023-02-26T22:28:23;-0.30;1.00
21590;DHT22;10957;50.968;6.828;2023-02-26T22:33:25;-0.20;1.00
21590;DHT22;10957;50.968;6.828;2023-02-26T22:38:26;-0.20;1.00
21590;DHT22;10957;50.968;6.828;2023-02-26T22:43:27;-0.20;1.00
21590;DHT22;10957;50.968;6.828;2023-02-26T22:48:28;-0.30;1.00
21590;DHT22;10957;50.968;6.828;2023-02-26T22:53:30;-0.10;1.00
21590;DHT22;10957;50.968;6.828;2023-02-26T22:58:31;-0.40;1.00
21590;DHT22;10957;50.968;6.828;2023-02-26T23:03:33;-0.90;1.00
21590;DHT22;10957;50.968;6.828;2023-02-26T23:08:34;-0.50;1.00
21590;DHT22;10957;50.968;6.828;2023-02-26T23:13:35;-0.60;1.00
21590;DHT22;10957;50.968;6.828;2023-02-26T23:18:37;-0.40;1.00
21590;DHT22;10957;50.968;6.828;2023-02-26T23:23:39;-0.50;1.00
21590;DHT22;10957;50.968;6.828;2023-02-26T23:28:41;-0.50;1.00
21590;DHT22;10957;50.968;6.828;2023-02-26T23:33:42;-0.70;1.00
21590;DHT22;10957;50.968;6.828;2023-02-26T23:38:44;-0.50;1.00
21590;DHT22;10957;50.968;6.828;2023-02-26T23:43:45;-1.20;1.00
21590;DHT22;10957;50.968;6.828;2023-02-26T23:48:46;-0.70;1.00
21590;DHT22;10957;50.968;6.828;2023-02-26T23:53:47;-0.60;1.00
21590;DHT22;10957;50.968;6.828;2023-02-26T23:58:50;-0.40;1.00
